RYR4DL LBBG-EPKK
Flight info
| Callsign | RYR4DL |
|---|---|
| Flight time | N/A |
| Altitude | 38000 |
| Route | GONGO DCT KOMAN DCT SOKRU DCT EPURA DCT DOTEV DCT LARMU DCT KARIL DCT KENIN DCT LENOV |
| Aircraft | B38M/M-SADE3FGILRWY/SB1 |
Departure
| Time | 2026-05-01 13:53 |
|---|---|
| Airport | Burgas Airport (LBBG) |
Arrival
| Time | N/A |
|---|---|
| Airport | Kraków John Paul II International Airport (EPKK) |
| Time | Latitude | Longitude | Altitude | Speed | Heading |
|---|---|---|---|---|---|
| 2026-05-01 13:26 | 42.56392 | 27.51326 | 173 ft | 0 kts | 139° |
| 2026-05-01 13:45 | 42.56401 | 27.51315 | 176 ft | 3 kts | 139° |
| 2026-05-01 13:46 | 42.56419 | 27.51294 | 176 ft | 3 kts | 139° |
| 2026-05-01 13:46 | 42.56434 | 27.51277 | 176 ft | 3 kts | 152° |
| 2026-05-01 13:46 | 42.56456 | 27.51270 | 176 ft | 3 kts | 187° |
| 2026-05-01 13:46 | 42.56478 | 27.51279 | 176 ft | 3 kts | 214° |
| 2026-05-01 13:47 | 42.56490 | 27.51294 | 176 ft | 0 kts | 230° |
| 2026-05-01 13:49 | 42.56486 | 27.51287 | 176 ft | 4 kts | 229° |
| 2026-05-01 13:50 | 42.56422 | 27.51191 | 176 ft | 24 kts | 228° |
| 2026-05-01 13:50 | 42.56301 | 27.51009 | 176 ft | 24 kts | 227° |
| 2026-05-01 13:50 | 42.56179 | 27.50827 | 176 ft | 25 kts | 228° |
| 2026-05-01 13:50 | 42.56059 | 27.50646 | 176 ft | 27 kts | 227° |
| 2026-05-01 13:51 | 42.55944 | 27.50474 | 176 ft | 24 kts | 228° |
| 2026-05-01 13:51 | 42.55896 | 27.50355 | 175 ft | 14 kts | 285° |
| 2026-05-01 13:51 | 42.55919 | 27.50303 | 175 ft | 0 kts | 314° |
| 2026-05-01 13:52 | 42.55927 | 27.50292 | 175 ft | 6 kts | 314° |
| 2026-05-01 13:52 | 42.55986 | 27.50212 | 174 ft | 11 kts | 323° |
| 2026-05-01 13:52 | 42.56042 | 27.50243 | 174 ft | 11 kts | 44° |
| 2026-05-01 13:52 | 42.56120 | 27.50345 | 175 ft | 25 kts | 43° |
| 2026-05-01 13:53 | 42.56435 | 27.50762 | 177 ft | 102 kts | 44° |
| 2026-05-01 13:53 | 42.57865 | 27.52604 | 1169 ft | 152 kts | 41° |
| 2026-05-01 13:53 | 42.58700 | 27.53505 | 2117 ft | 161 kts | 33° |
| 2026-05-01 13:54 | 42.59728 | 27.54309 | 2971 ft | 180 kts | 29° |
| 2026-05-01 13:54 | 42.60862 | 27.55151 | 4070 ft | 188 kts | 27° |
| 2026-05-01 13:54 | 42.62144 | 27.55703 | 5004 ft | 204 kts | 8° |
| 2026-05-01 13:54 | 42.63618 | 27.55567 | 5672 ft | 226 kts | 341° |
| 2026-05-01 13:55 | 42.64965 | 27.54287 | 6360 ft | 248 kts | 319° |
| 2026-05-01 13:55 | 42.66316 | 27.52700 | 7093 ft | 263 kts | 321° |
| 2026-05-01 13:55 | 42.67714 | 27.51101 | 8123 ft | 265 kts | 321° |
| 2026-05-01 13:55 | 42.69138 | 27.49485 | 9160 ft | 267 kts | 322° |
| 2026-05-01 13:56 | 42.70574 | 27.47859 | 10169 ft | 272 kts | 322° |
| 2026-05-01 13:56 | 42.72068 | 27.46176 | 10802 ft | 286 kts | 322° |
| 2026-05-01 13:56 | 42.73637 | 27.44417 | 11493 ft | 298 kts | 322° |
| 2026-05-01 13:56 | 42.75222 | 27.42633 | 12492 ft | 300 kts | 321° |
| 2026-05-01 13:57 | 42.76833 | 27.40816 | 13566 ft | 302 kts | 321° |
| 2026-05-01 13:57 | 42.78460 | 27.38975 | 14531 ft | 307 kts | 321° |
| 2026-05-01 13:57 | 42.80116 | 27.37102 | 15463 ft | 311 kts | 321° |
| 2026-05-01 13:57 | 42.81793 | 27.35200 | 16382 ft | 317 kts | 320° |
| 2026-05-01 13:58 | 42.83501 | 27.33267 | 17340 ft | 321 kts | 320° |
| 2026-05-01 13:58 | 42.85233 | 27.31301 | 18218 ft | 327 kts | 320° |
| 2026-05-01 13:58 | 42.86995 | 27.29302 | 19044 ft | 331 kts | 319° |
| 2026-05-01 13:58 | 42.88773 | 27.27281 | 19844 ft | 334 kts | 319° |
| 2026-05-01 13:59 | 42.90573 | 27.25235 | 20576 ft | 339 kts | 319° |
| 2026-05-01 13:59 | 42.92398 | 27.23157 | 21322 ft | 343 kts | 319° |
| 2026-05-01 13:59 | 42.94239 | 27.21059 | 22100 ft | 346 kts | 319° |
| 2026-05-01 13:59 | 42.96098 | 27.18940 | 22841 ft | 350 kts | 319° |
| 2026-05-01 14:00 | 42.97976 | 27.16796 | 23593 ft | 354 kts | 319° |
| 2026-05-01 14:00 | 42.99872 | 27.14631 | 24251 ft | 357 kts | 319° |
| 2026-05-01 14:00 | 43.01785 | 27.12444 | 24864 ft | 361 kts | 319° |
| 2026-05-01 14:00 | 43.03692 | 27.10260 | 25471 ft | 364 kts | 318° |
| 2026-05-01 14:01 | 43.05642 | 27.08027 | 26087 ft | 368 kts | 318° |
| 2026-05-01 14:01 | 43.07612 | 27.05768 | 26673 ft | 371 kts | 318° |
| 2026-05-01 14:01 | 43.09609 | 27.03497 | 27234 ft | 376 kts | 321° |
| 2026-05-01 14:01 | 43.11817 | 27.01540 | 27807 ft | 380 kts | 326° |
| 2026-05-01 14:02 | 43.14051 | 26.99571 | 28354 ft | 384 kts | 325° |
| 2026-05-01 14:02 | 43.16296 | 26.97557 | 28894 ft | 387 kts | 324° |
| 2026-05-01 14:02 | 43.18552 | 26.95515 | 29442 ft | 391 kts | 324° |
| 2026-05-01 14:02 | 43.20828 | 26.93445 | 29983 ft | 394 kts | 324° |
| 2026-05-01 14:03 | 43.23125 | 26.91351 | 30475 ft | 398 kts | 324° |
| 2026-05-01 14:03 | 43.25440 | 26.89239 | 30891 ft | 401 kts | 324° |
| 2026-05-01 14:03 | 43.27774 | 26.87106 | 31306 ft | 405 kts | 324° |
| 2026-05-01 14:03 | 43.30121 | 26.84959 | 31758 ft | 407 kts | 324° |
| 2026-05-01 14:04 | 43.32485 | 26.82795 | 32194 ft | 410 kts | 324° |
| 2026-05-01 14:04 | 43.34868 | 26.80611 | 32567 ft | 414 kts | 324° |
| 2026-05-01 14:04 | 43.37275 | 26.78402 | 32955 ft | 417 kts | 324° |
| 2026-05-01 14:04 | 43.38875 | 26.76934 | 33207 ft | 420 kts | 324° |
| 2026-05-01 14:05 | 43.42143 | 26.73930 | 33704 ft | 425 kts | 324° |
| 2026-05-01 14:05 | 43.44610 | 26.71661 | 34084 ft | 428 kts | 324° |
| 2026-05-01 14:05 | 43.47090 | 26.69377 | 34501 ft | 429 kts | 324° |
| 2026-05-01 14:05 | 43.49571 | 26.67090 | 34926 ft | 429 kts | 324° |
| 2026-05-01 14:06 | 43.52050 | 26.64802 | 35363 ft | 429 kts | 324° |
| 2026-05-01 14:06 | 43.54526 | 26.62515 | 35814 ft | 428 kts | 324° |
| 2026-05-01 14:06 | 43.56993 | 26.60233 | 36252 ft | 427 kts | 324° |
| 2026-05-01 14:06 | 43.59463 | 26.57947 | 36687 ft | 427 kts | 324° |
| 2026-05-01 14:07 | 43.61926 | 26.55665 | 37134 ft | 426 kts | 324° |
| 2026-05-01 14:07 | 43.64385 | 26.53385 | 37550 ft | 426 kts | 324° |
| 2026-05-01 14:07 | 43.66840 | 26.51106 | 37955 ft | 425 kts | 324° |
| 2026-05-01 14:08 | 43.71759 | 26.46533 | 38313 ft | 426 kts | 324° |
| 2026-05-01 14:08 | 43.76642 | 26.41983 | 38297 ft | 422 kts | 324° |
| 2026-05-01 14:09 | 43.81510 | 26.37438 | 38294 ft | 422 kts | 324° |
| 2026-05-01 14:09 | 43.86384 | 26.32880 | 38284 ft | 423 kts | 324° |
| 2026-05-01 14:10 | 43.91261 | 26.28309 | 38302 ft | 423 kts | 324° |
| 2026-05-01 14:10 | 43.96137 | 26.23731 | 38296 ft | 423 kts | 324° |
| 2026-05-01 14:11 | 44.01110 | 26.19361 | 38307 ft | 423 kts | 327° |
| 2026-05-01 14:11 | 44.08590 | 26.12918 | 38304 ft | 423 kts | 327° |
| 2026-05-01 14:12 | 44.13593 | 26.08588 | 38303 ft | 424 kts | 327° |
| 2026-05-01 14:12 | 44.18596 | 26.04249 | 38293 ft | 424 kts | 327° |
| 2026-05-01 14:13 | 44.22790 | 26.00604 | 38301 ft | 424 kts | 327° |
| 2026-05-01 14:13 | 44.28600 | 25.95546 | 38304 ft | 424 kts | 327° |
| 2026-05-01 14:14 | 44.33600 | 25.91183 | 38301 ft | 424 kts | 327° |
| 2026-05-01 14:14 | 44.38597 | 25.86813 | 38308 ft | 423 kts | 327° |
| 2026-05-01 14:15 | 44.43583 | 25.82445 | 38295 ft | 423 kts | 327° |
| 2026-05-01 14:15 | 44.48571 | 25.78065 | 38292 ft | 423 kts | 327° |
| 2026-05-01 14:16 | 44.53556 | 25.73680 | 38291 ft | 423 kts | 327° |
| 2026-05-01 14:16 | 44.58542 | 25.69284 | 38281 ft | 423 kts | 328° |
| 2026-05-01 14:17 | 44.63525 | 25.64883 | 38301 ft | 424 kts | 328° |
| 2026-05-01 14:17 | 44.68518 | 25.60463 | 38277 ft | 424 kts | 328° |
| 2026-05-01 14:18 | 44.73510 | 25.56035 | 38283 ft | 424 kts | 328° |
| 2026-05-01 14:18 | 44.77658 | 25.52349 | 38279 ft | 424 kts | 328° |
| 2026-05-01 14:19 | 44.83484 | 25.47160 | 38269 ft | 424 kts | 328° |
| 2026-05-01 14:19 | 44.88459 | 25.42720 | 38284 ft | 423 kts | 328° |
| 2026-05-01 14:20 | 44.95892 | 25.36071 | 38274 ft | 421 kts | 328° |
| 2026-05-01 14:21 | 45.00730 | 25.31430 | 38279 ft | 421 kts | 324° |
| 2026-05-01 14:21 | 45.05408 | 25.26542 | 38265 ft | 420 kts | 324° |
| 2026-05-01 14:22 | 45.12486 | 25.19213 | 38264 ft | 420 kts | 325° |
| 2026-05-01 14:22 | 45.17201 | 25.14323 | 38273 ft | 420 kts | 325° |
| 2026-05-01 14:23 | 45.21920 | 25.09419 | 38262 ft | 421 kts | 325° |
| 2026-05-01 14:23 | 45.26644 | 25.04500 | 38253 ft | 422 kts | 325° |
| 2026-05-01 14:24 | 45.31387 | 24.99550 | 38260 ft | 424 kts | 325° |
| 2026-05-01 14:24 | 45.36131 | 24.94589 | 38270 ft | 423 kts | 325° |
| 2026-05-01 14:25 | 45.40860 | 24.89633 | 38262 ft | 423 kts | 325° |
| 2026-05-01 14:25 | 45.45595 | 24.84660 | 38278 ft | 423 kts | 325° |
| 2026-05-01 14:26 | 45.52695 | 24.77183 | 38264 ft | 423 kts | 326° |
| 2026-05-01 14:27 | 45.57418 | 24.72196 | 38258 ft | 422 kts | 326° |
| 2026-05-01 14:27 | 45.61343 | 24.68043 | 38263 ft | 423 kts | 325° |
| 2026-05-01 14:28 | 45.68428 | 24.60529 | 38247 ft | 423 kts | 326° |
| 2026-05-01 14:28 | 45.73139 | 24.55520 | 38261 ft | 421 kts | 326° |
| 2026-05-01 14:29 | 45.77866 | 24.50551 | 38250 ft | 421 kts | 331° |
| 2026-05-01 14:30 | 45.88095 | 24.42526 | 38255 ft | 420 kts | 334° |
| 2026-05-01 14:31 | 45.95786 | 24.36517 | 38241 ft | 419 kts | 334° |
| 2026-05-01 14:31 | 46.00911 | 24.32503 | 38255 ft | 420 kts | 334° |
| 2026-05-01 14:32 | 46.06031 | 24.28484 | 38246 ft | 419 kts | 334° |
| 2026-05-01 14:32 | 46.11146 | 24.24460 | 38246 ft | 419 kts | 334° |
| 2026-05-01 14:33 | 46.16223 | 24.20459 | 38241 ft | 419 kts | 334° |
| 2026-05-01 14:33 | 46.21333 | 24.16422 | 38249 ft | 419 kts | 334° |
| 2026-05-01 14:34 | 46.26442 | 24.12377 | 38245 ft | 419 kts | 334° |
| 2026-05-01 14:34 | 46.31552 | 24.08323 | 38250 ft | 419 kts | 334° |
| 2026-05-01 14:35 | 46.36659 | 24.04264 | 38248 ft | 419 kts | 334° |
| 2026-05-01 14:35 | 46.41593 | 23.99754 | 38257 ft | 421 kts | 328° |
| 2026-05-01 14:36 | 46.46402 | 23.94909 | 38241 ft | 420 kts | 328° |
| 2026-05-01 14:36 | 46.51193 | 23.90040 | 38243 ft | 420 kts | 328° |
| 2026-05-01 14:37 | 46.55980 | 23.85163 | 38245 ft | 421 kts | 328° |
| 2026-05-01 14:37 | 46.60772 | 23.80269 | 38248 ft | 421 kts | 328° |
| 2026-05-01 14:38 | 46.65559 | 23.75370 | 38248 ft | 421 kts | 328° |
| 2026-05-01 14:38 | 46.70341 | 23.70463 | 38243 ft | 420 kts | 329° |
| 2026-05-01 14:39 | 46.75119 | 23.65552 | 38250 ft | 420 kts | 328° |
| 2026-05-01 14:39 | 46.79897 | 23.60629 | 38249 ft | 420 kts | 328° |
| 2026-05-01 14:40 | 46.84672 | 23.55699 | 38257 ft | 420 kts | 329° |
| 2026-05-01 14:40 | 46.89434 | 23.50770 | 38241 ft | 419 kts | 329° |
| 2026-05-01 14:41 | 46.94186 | 23.45841 | 38254 ft | 418 kts | 329° |
| 2026-05-01 14:41 | 46.98924 | 23.40916 | 38264 ft | 418 kts | 329° |
| 2026-05-01 14:42 | 47.03659 | 23.35982 | 38259 ft | 418 kts | 329° |
| 2026-05-01 14:42 | 47.08389 | 23.31044 | 38271 ft | 418 kts | 329° |
| 2026-05-01 14:43 | 47.13118 | 23.26094 | 38236 ft | 417 kts | 330° |
| 2026-05-01 14:43 | 47.17833 | 23.21151 | 38260 ft | 416 kts | 330° |
| 2026-05-01 14:44 | 47.22512 | 23.16235 | 38263 ft | 416 kts | 330° |
| 2026-05-01 14:44 | 47.29239 | 23.08073 | 38261 ft | 420 kts | 324° |
| 2026-05-01 14:45 | 47.35891 | 22.99674 | 38239 ft | 420 kts | 325° |
| 2026-05-01 14:46 | 47.40330 | 22.94073 | 38268 ft | 420 kts | 325° |
| 2026-05-01 14:46 | 47.46989 | 22.85648 | 38271 ft | 420 kts | 326° |
| 2026-05-01 14:47 | 47.51417 | 22.80028 | 38271 ft | 419 kts | 326° |
| 2026-05-01 14:48 | 47.58287 | 22.72219 | 38284 ft | 407 kts | 338° |
| 2026-05-01 14:48 | 47.65582 | 22.65598 | 38273 ft | 411 kts | 334° |
| 2026-05-01 14:49 | 47.75225 | 22.56514 | 38280 ft | 410 kts | 334° |
| 2026-05-01 14:50 | 47.84857 | 22.47390 | 38257 ft | 409 kts | 334° |
| 2026-05-01 14:51 | 47.92029 | 22.40570 | 38275 ft | 408 kts | 334° |
| 2026-05-01 14:52 | 47.99207 | 22.33720 | 38282 ft | 408 kts | 334° |
| 2026-05-01 14:53 | 48.06322 | 22.26909 | 38277 ft | 406 kts | 334° |
| 2026-05-01 14:53 | 48.11072 | 22.22349 | 38271 ft | 404 kts | 334° |
| 2026-05-01 14:54 | 48.15798 | 22.17802 | 38268 ft | 404 kts | 334° |
| 2026-05-01 14:54 | 48.20521 | 22.13247 | 38273 ft | 404 kts | 334° |
| 2026-05-01 14:55 | 48.25241 | 22.08685 | 38275 ft | 403 kts | 334° |
| 2026-05-01 14:55 | 48.29948 | 22.04126 | 38272 ft | 402 kts | 334° |
| 2026-05-01 14:56 | 48.34644 | 21.99567 | 38253 ft | 402 kts | 334° |
| 2026-05-01 14:56 | 48.39333 | 21.95005 | 38267 ft | 401 kts | 334° |
| 2026-05-01 14:57 | 48.44019 | 21.90435 | 38273 ft | 401 kts | 334° |
| 2026-05-01 14:57 | 48.51047 | 21.83563 | 38277 ft | 401 kts | 334° |
| 2026-05-01 14:58 | 48.55727 | 21.78974 | 38266 ft | 401 kts | 334° |
| 2026-05-01 14:58 | 48.60409 | 21.74373 | 38276 ft | 402 kts | 334° |
| 2026-05-01 14:59 | 48.65089 | 21.69763 | 38278 ft | 401 kts | 334° |
| 2026-05-01 14:59 | 48.69767 | 21.65145 | 38272 ft | 401 kts | 334° |
| 2026-05-01 15:00 | 48.76782 | 21.58201 | 38265 ft | 402 kts | 334° |
| 2026-05-01 15:01 | 48.81455 | 21.53560 | 37827 ft | 402 kts | 334° |
| 2026-05-01 15:01 | 48.83804 | 21.51227 | 36679 ft | 404 kts | 334° |
| 2026-05-01 15:01 | 48.86149 | 21.48892 | 35757 ft | 400 kts | 335° |
| 2026-05-01 15:01 | 48.88447 | 21.46598 | 35176 ft | 389 kts | 335° |
| 2026-05-01 15:02 | 48.90687 | 21.44362 | 34808 ft | 382 kts | 336° |
| 2026-05-01 15:02 | 48.91404 | 21.43647 | 34686 ft | 380 kts | 336° |
| 2026-05-01 15:02 | 48.95069 | 21.39985 | 33914 ft | 374 kts | 336° |
| 2026-05-01 15:02 | 48.97243 | 21.37810 | 33351 ft | 373 kts | 336° |
| 2026-05-01 15:03 | 48.99400 | 21.35647 | 32842 ft | 367 kts | 336° |
| 2026-05-01 15:03 | 49.01470 | 21.33567 | 32384 ft | 355 kts | 337° |
| 2026-05-01 15:03 | 49.03523 | 21.31504 | 31954 ft | 343 kts | 338° |
| 2026-05-01 15:03 | 49.05459 | 21.29559 | 31535 ft | 333 kts | 338° |
| 2026-05-01 15:04 | 49.07397 | 21.27610 | 31126 ft | 328 kts | 339° |
| 2026-05-01 15:04 | 49.09273 | 21.25725 | 30726 ft | 327 kts | 339° |
| 2026-05-01 15:04 | 49.11176 | 21.23808 | 30256 ft | 329 kts | 339° |
| 2026-05-01 15:04 | 49.13086 | 21.21879 | 29704 ft | 329 kts | 338° |
| 2026-05-01 15:05 | 49.14992 | 21.19954 | 29279 ft | 328 kts | 338° |
| 2026-05-01 15:05 | 49.16892 | 21.18033 | 28870 ft | 327 kts | 338° |
| 2026-05-01 15:05 | 49.18783 | 21.16120 | 28445 ft | 326 kts | 338° |
| 2026-05-01 15:05 | 49.20669 | 21.14210 | 28031 ft | 325 kts | 338° |
| 2026-05-01 15:06 | 49.22554 | 21.12300 | 27602 ft | 325 kts | 338° |
| 2026-05-01 15:06 | 49.24434 | 21.10391 | 27166 ft | 325 kts | 338° |
| 2026-05-01 15:06 | 49.26314 | 21.08482 | 26749 ft | 325 kts | 338° |
| 2026-05-01 15:06 | 49.28195 | 21.06570 | 26319 ft | 324 kts | 338° |
| 2026-05-01 15:07 | 49.30075 | 21.04658 | 25899 ft | 324 kts | 337° |